sensor_id;sensor_type;location;lat;lon;timestamp;pressure;altitude;pressure_sealevel;temperature;humidity
41040;BME280;48586;50.122;18.972;2024-02-21T00:00:21;99291.59;;;3.49;61.84
41040;BME280;48586;50.122;18.972;2024-02-21T00:03:30;99286.56;;;3.45;61.75
41040;BME280;48586;50.122;18.972;2024-02-21T00:06:36;99278.34;;;3.49;62.16
41040;BME280;48586;50.122;18.972;2024-02-21T00:09:41;99272.63;;;3.57;61.78
41040;BME280;48586;50.122;18.972;2024-02-21T00:12:49;99275.53;;;3.68;61.71
41040;BME280;48586;50.122;18.972;2024-02-21T00:15:54;99270.06;;;3.71;61.59
41040;BME280;48586;50.122;18.972;2024-02-21T00:19:03;99262.91;;;3.73;60.98
41040;BME280;48586;50.122;18.972;2024-02-21T00:22:10;99263.31;;;3.65;61.35
41040;BME280;48586;50.122;18.972;2024-02-21T00:25:16;99274.09;;;3.62;61.49
41040;BME280;48586;50.122;18.972;2024-02-21T00:28:20;99271.44;;;3.47;61.61
41040;BME280;48586;50.122;18.972;2024-02-21T00:31:26;99280.75;;;3.38;62.06
41040;BME280;48586;50.122;18.972;2024-02-21T00:34:33;99260.50;;;3.21;62.57
41040;BME280;48586;50.122;18.972;2024-02-21T00:37:38;99263.53;;;3.29;62.22
41040;BME280;48586;50.122;18.972;2024-02-21T00:40:43;99270.41;;;3.33;61.67
41040;BME280;48586;50.122;18.972;2024-02-21T00:43:48;99261.69;;;3.31;61.98
41040;BME280;48586;50.122;18.972;2024-02-21T00:46:53;99250.16;;;3.32;61.98
41040;BME280;48586;50.122;18.972;2024-02-21T00:50:01;99244.41;;;3.42;61.54
41040;BME280;48586;50.122;18.972;2024-02-21T00:53:05;99249.50;;;3.45;61.45
41040;BME280;48586;50.122;18.972;2024-02-21T00:56:11;99242.50;;;3.44;61.42
41040;BME280;48586;50.122;18.972;2024-02-21T00:59:17;99237.22;;;3.44;61.66
41040;BME280;48586;50.122;18.972;2024-02-21T01:02:23;99248.28;;;3.50;61.29
41040;BME280;48586;50.122;18.972;2024-02-21T01:05:30;99246.69;;;3.48;61.18
41040;BME280;48586;50.122;18.972;2024-02-21T01:08:35;99240.34;;;3.50;61.10
41040;BME280;48586;50.122;18.972;2024-02-21T01:11:40;99232.09;;;3.40;61.32
41040;BME280;48586;50.122;18.972;2024-02-21T01:14:45;99240.03;;;3.40;61.65
41040;BME280;48586;50.122;18.972;2024-02-21T01:17:50;99238.56;;;3.35;61.36
41040;BME280;48586;50.122;18.972;2024-02-21T01:20:59;99233.25;;;3.19;61.81
41040;BME280;48586;50.122;18.972;2024-02-21T01:24:04;99236.81;;;3.18;62.47
41040;BME280;48586;50.122;18.972;2024-02-21T01:27:09;99231.88;;;3.12;62.11
41040;BME280;48586;50.122;18.972;2024-02-21T01:30:14;99226.16;;;3.04;62.41
41040;BME280;48586;50.122;18.972;2024-02-21T01:33:20;99220.41;;;2.96;62.96
41040;BME280;48586;50.122;18.972;2024-02-21T01:36:27;99212.97;;;2.87;63.55
41040;BME280;48586;50.122;18.972;2024-02-21T01:39:33;99215.13;;;2.80;63.21
41040;BME280;48586;50.122;18.972;2024-02-21T01:42:38;99216.22;;;2.76;63.38
41040;BME280;48586;50.122;18.972;2024-02-21T01:45:48;99221.59;;;2.74;63.81
41040;BME280;48586;50.122;18.972;2024-02-21T01:48:55;99216.28;;;2.74;63.43
41040;BME280;48586;50.122;18.972;2024-02-21T01:52:05;99220.66;;;2.75;63.93
41040;BME280;48586;50.122;18.972;2024-02-21T01:55:13;99223.28;;;2.75;63.89
41040;BME280;48586;50.122;18.972;2024-02-21T01:58:21;99223.25;;;2.77;63.77
41040;BME280;48586;50.122;18.972;2024-02-21T02:01:29;99207.78;;;2.69;64.17
41040;BME280;48586;50.122;18.972;2024-02-21T02:04:34;99223.28;;;2.75;64.17
41040;BME280;48586;50.122;18.972;2024-02-21T02:07:44;99217.25;;;2.73;64.51
41040;BME280;48586;50.122;18.972;2024-02-21T02:10:50;99218.81;;;2.77;64.38
41040;BME280;48586;50.122;18.972;2024-02-21T02:13:56;99204.19;;;2.70;64.46
41040;BME280;48586;50.122;18.972;2024-02-21T02:17:01;99217.25;;;2.73;64.52
41040;BME280;48586;50.122;18.972;2024-02-21T02:20:07;99204.94;;;2.72;64.58
41040;BME280;48586;50.122;18.972;2024-02-21T02:23:26;99208.81;;;2.67;64.89
41040;BME280;48586;50.122;18.972;2024-02-21T02:26:33;99199.22;;;2.64;65.05
41040;BME280;48586;50.122;18.972;2024-02-21T02:29:39;99200.34;;;2.60;64.96
41040;BME280;48586;50.122;18.972;2024-02-21T02:32:44;99201.28;;;2.59;65.99
41040;BME280;48586;50.122;18.972;2024-02-21T02:35:50;99197.41;;;2.49;66.49
41040;BME280;48586;50.122;18.972;2024-02-21T02:38:58;99198.16;;;2.35;66.66
41040;BME280;48586;50.122;18.972;2024-02-21T02:42:04;99199.13;;;2.33;66.95
41040;BME280;48586;50.122;18.972;2024-02-21T02:45:10;99191.38;;;2.30;66.55
41040;BME280;48586;50.122;18.972;2024-02-21T02:48:15;99192.56;;;2.24;66.83
41040;BME280;48586;50.122;18.972;2024-02-21T02:51:21;99183.16;;;2.18;66.74
41040;BME280;48586;50.122;18.972;2024-02-21T02:54:29;99175.53;;;2.12;66.41
41040;BME280;48586;50.122;18.972;2024-02-21T02:57:35;99178.91;;;2.16;66.64
41040;BME280;48586;50.122;18.972;2024-02-21T03:00:39;99172.00;;;2.13;66.12
41040;BME280;48586;50.122;18.972;2024-02-21T03:03:45;99181.63;;;2.14;65.82
41040;BME280;48586;50.122;18.972;2024-02-21T03:06:51;99182.47;;;2.15;66.09
41040;BME280;48586;50.122;18.972;2024-02-21T03:09:59;99169.78;;;2.21;66.40
41040;BME280;48586;50.122;18.972;2024-02-21T03:13:03;99177.56;;;2.24;65.77
41040;BME280;48586;50.122;18.972;2024-02-21T03:16:09;99160.00;;;2.23;65.56
41040;BME280;48586;50.122;18.972;2024-02-21T03:19:13;99173.34;;;2.20;65.70
41040;BME280;48586;50.122;18.972;2024-02-21T03:22:19;99175.91;;;2.22;66.08
41040;BME280;48586;50.122;18.972;2024-02-21T03:25:26;99168.53;;;2.29;66.17
41040;BME280;48586;50.122;18.972;2024-02-21T03:28:31;99151.19;;;2.23;65.45
41040;BME280;48586;50.122;18.972;2024-02-21T03:31:35;99160.22;;;2.36;65.63
41040;BME280;48586;50.122;18.972;2024-02-21T03:34:41;99157.56;;;2.36;65.80
41040;BME280;48586;50.122;18.972;2024-02-21T03:37:45;99153.59;;;2.45;65.52
41040;BME280;48586;50.122;18.972;2024-02-21T03:40:54;99155.97;;;2.49;65.58
41040;BME280;48586;50.122;18.972;2024-02-21T03:43:58;99147.84;;;2.52;65.17
41040;BME280;48586;50.122;18.972;2024-02-21T03:47:04;99146.91;;;2.53;64.85
41040;BME280;48586;50.122;18.972;2024-02-21T03:50:11;99146.34;;;2.64;65.55
41040;BME280;48586;50.122;18.972;2024-02-21T03:53:17;99143.19;;;2.73;64.75
41040;BME280;48586;50.122;18.972;2024-02-21T03:56:24;99150.09;;;2.76;64.38
41040;BME280;48586;50.122;18.972;2024-02-21T03:59:29;99140.63;;;2.72;64.48
41040;BME280;48586;50.122;18.972;2024-02-21T04:02:34;99143.19;;;2.73;64.10
41040;BME280;48586;50.122;18.972;2024-02-21T04:05:39;99144.50;;;2.66;64.45
41040;BME280;48586;50.122;18.972;2024-02-21T04:08:45;99141.75;;;2.68;64.69
41040;BME280;48586;50.122;18.972;2024-02-21T04:11:53;99147.13;;;2.66;63.85
41040;BME280;48586;50.122;18.972;2024-02-21T04:14:57;99155.13;;;2.65;64.20
41040;BME280;48586;50.122;18.972;2024-02-21T04:18:03;99156.91;;;2.64;63.92
41040;BME280;48586;50.122;18.972;2024-02-21T04:21:09;99143.34;;;2.54;64.28
41040;BME280;48586;50.122;18.972;2024-02-21T04:24:15;99153.19;;;2.68;64.22
41040;BME280;48586;50.122;18.972;2024-02-21T04:27:22;99151.84;;;2.77;64.21
41040;BME280;48586;50.122;18.972;2024-02-21T04:30:27;99145.25;;;2.84;63.26
41040;BME280;48586;50.122;18.972;2024-02-21T04:33:34;99149.09;;;2.94;63.48
41040;BME280;48586;50.122;18.972;2024-02-21T04:36:39;99136.38;;;3.01;62.95
41040;BME280;48586;50.122;18.972;2024-02-21T04:39:44;99136.03;;;3.07;61.99
41040;BME280;48586;50.122;18.972;2024-02-21T04:42:52;99137.81;;;3.06;62.05
41040;BME280;48586;50.122;18.972;2024-02-21T04:45:57;99142.84;;;2.95;61.91
41040;BME280;48586;50.122;18.972;2024-02-21T04:49:02;99149.78;;;2.82;62.78
41040;BME280;48586;50.122;18.972;2024-02-21T04:52:07;99140.13;;;2.81;62.98
41040;BME280;48586;50.122;18.972;2024-02-21T04:55:12;99133.13;;;2.80;62.74
41040;BME280;48586;50.122;18.972;2024-02-21T04:58:20;99128.63;;;2.82;63.21
41040;BME280;48586;50.122;18.972;2024-02-21T05:01:25;99121.53;;;2.82;62.80
41040;BME280;48586;50.122;18.972;2024-02-21T05:04:30;99131.16;;;2.83;62.45
41040;BME280;48586;50.122;18.972;2024-02-21T05:07:35;99118.88;;;2.82;62.91
41040;BME280;48586;50.122;18.972;2024-02-21T05:10:39;99110.38;;;2.77;62.58
41040;BME280;48586;50.122;18.972;2024-02-21T05:13:47;99120.25;;;2.74;62.73
41040;BME280;48586;50.122;18.972;2024-02-21T05:16:52;99109.75;;;2.72;62.72
41040;BME280;48586;50.122;18.972;2024-02-21T05:19:57;99106.94;;;2.75;62.49
41040;BME280;48586;50.122;18.972;2024-02-21T05:23:02;99099.00;;;2.75;62.53
41040;BME280;48586;50.122;18.972;2024-02-21T05:26:08;99114.63;;;2.80;62.41
41040;BME280;48586;50.122;18.972;2024-02-21T05:29:15;99106.09;;;2.75;62.24
41040;BME280;48586;50.122;18.972;2024-02-21T05:32:21;99107.28;;;2.69;62.28
41040;BME280;48586;50.122;18.972;2024-02-21T05:35:26;99105.41;;;2.71;62.92
41040;BME280;48586;50.122;18.972;2024-02-21T05:38:32;99102.66;;;2.73;62.70
41040;BME280;48586;50.122;18.972;2024-02-21T05:41:36;99105.31;;;2.73;62.40
41040;BME280;48586;50.122;18.972;2024-02-21T05:44:44;99109.16;;;2.67;62.37
41040;BME280;48586;50.122;18.972;2024-02-21T05:47:49;99105.59;;;2.68;63.03
41040;BME280;48586;50.122;18.972;2024-02-21T05:50:54;99104.75;;;2.68;62.94
41040;BME280;48586;50.122;18.972;2024-02-21T05:53:59;99104.91;;;2.80;62.57
41040;BME280;48586;50.122;18.972;2024-02-21T05:57:05;99113.59;;;2.82;62.43
41040;BME280;48586;50.122;18.972;2024-02-21T06:00:15;99104.38;;;2.90;62.36
41040;BME280;48586;50.122;18.972;2024-02-21T06:03:22;99101.28;;;2.97;62.12
41040;BME280;48586;50.122;18.972;2024-02-21T06:06:28;99107.47;;;2.98;62.14
41040;BME280;48586;50.122;18.972;2024-02-21T06:09:34;99087.56;;;2.91;62.02
41040;BME280;48586;50.122;18.972;2024-02-21T06:12:40;99100.03;;;2.89;61.74
41040;BME280;48586;50.122;18.972;2024-02-21T06:15:48;99098.25;;;2.89;62.63
41040;BME280;48586;50.122;18.972;2024-02-21T06:18:55;99100.44;;;2.97;61.91
41040;BME280;48586;50.122;18.972;2024-02-21T06:22:02;99106.66;;;2.96;61.75
41040;BME280;48586;50.122;18.972;2024-02-21T06:25:09;99096.69;;;2.85;62.14
41040;BME280;48586;50.122;18.972;2024-02-21T06:28:16;99100.97;;;2.88;62.20
41040;BME280;48586;50.122;18.972;2024-02-21T06:31:25;99101.97;;;2.85;62.09
41040;BME280;48586;50.122;18.972;2024-02-21T06:34:32;99095.09;;;2.82;62.45
41040;BME280;48586;50.122;18.972;2024-02-21T06:37:38;99099.78;;;2.77;62.41
41040;BME280;48586;50.122;18.972;2024-02-21T06:40:44;99103.19;;;2.79;62.50
41040;BME280;48586;50.122;18.972;2024-02-21T06:43:52;99099.53;;;2.82;62.38
41040;BME280;48586;50.122;18.972;2024-02-21T06:47:01;99094.13;;;2.83;62.62
41040;BME280;48586;50.122;18.972;2024-02-21T06:50:07;99086.19;;;2.83;62.58
41040;BME280;48586;50.122;18.972;2024-02-21T06:53:14;99097.81;;;2.81;62.27
41040;BME280;48586;50.122;18.972;2024-02-21T06:56:23;99092.94;;;2.73;62.90
41040;BME280;48586;50.122;18.972;2024-02-21T06:59:32;99089.53;;;2.71;63.06
41040;BME280;48586;50.122;18.972;2024-02-21T07:02:40;99094.31;;;2.80;62.84
41040;BME280;48586;50.122;18.972;2024-02-21T07:05:46;99096.03;;;2.81;62.76
41040;BME280;48586;50.122;18.972;2024-02-21T07:08:51;99097.72;;;2.82;62.51
41040;BME280;48586;50.122;18.972;2024-02-21T07:11:57;99102.16;;;2.98;62.72
41040;BME280;48586;50.122;18.972;2024-02-21T07:15:04;99105.56;;;3.00;62.15
41040;BME280;48586;50.122;18.972;2024-02-21T07:18:14;99108.47;;;2.95;62.51
41040;BME280;48586;50.122;18.972;2024-02-21T07:21:19;99101.13;;;3.00;62.55
41040;BME280;48586;50.122;18.972;2024-02-21T07:24:25;99097.56;;;3.01;62.63
41040;BME280;48586;50.122;18.972;2024-02-21T07:27:31;99103.59;;;3.03;62.33
41040;BME280;48586;50.122;18.972;2024-02-21T07:30:38;99095.66;;;3.03;62.67
41040;BME280;48586;50.122;18.972;2024-02-21T07:33:46;99093.78;;;3.05;62.57
41040;BME280;48586;50.122;18.972;2024-02-21T07:36:53;99086.44;;;3.10;62.15
41040;BME280;48586;50.122;18.972;2024-02-21T07:39:59;99087.53;;;3.22;62.51
41040;BME280;48586;50.122;18.972;2024-02-21T07:43:05;99080.91;;;3.29;62.19
41040;BME280;48586;50.122;18.972;2024-02-21T07:46:10;99072.72;;;3.34;61.87
41040;BME280;48586;50.122;18.972;2024-02-21T07:49:19;99072.03;;;3.46;62.12
41040;BME280;48586;50.122;18.972;2024-02-21T07:52:26;99072.06;;;3.60;61.54
41040;BME280;48586;50.122;18.972;2024-02-21T07:55:32;99072.91;;;3.61;61.20
41040;BME280;48586;50.122;18.972;2024-02-21T07:58:38;99069.34;;;3.62;60.94
41040;BME280;48586;50.122;18.972;2024-02-21T08:01:45;99059.13;;;3.70;61.63
41040;BME280;48586;50.122;18.972;2024-02-21T08:04:53;99054.41;;;3.75;60.71
41040;BME280;48586;50.122;18.972;2024-02-21T08:08:01;99053.16;;;3.81;60.92
41040;BME280;48586;50.122;18.972;2024-02-21T08:11:06;99048.16;;;3.76;61.17
41040;BME280;48586;50.122;18.972;2024-02-21T08:14:12;99043.72;;;3.77;60.71
41040;BME280;48586;50.122;18.972;2024-02-21T08:17:18;99039.81;;;3.82;60.86
41040;BME280;48586;50.122;18.972;2024-02-21T08:20:28;99034.16;;;4.03;60.82
41040;BME280;48586;50.122;18.972;2024-02-21T08:23:33;99038.31;;;4.21;60.30
41040;BME280;48586;50.122;18.972;2024-02-21T08:26:40;99032.66;;;4.54;59.56
41040;BME280;48586;50.122;18.972;2024-02-21T08:29:47;99025.81;;;4.78;58.10
41040;BME280;48586;50.122;18.972;2024-02-21T08:32:53;99022.13;;;4.94;57.60
41040;BME280;48586;50.122;18.972;2024-02-21T08:36:02;99024.72;;;5.08;57.11
41040;BME280;48586;50.122;18.972;2024-02-21T08:39:09;99031.00;;;5.20;55.82
41040;BME280;48586;50.122;18.972;2024-02-21T08:42:19;99025.56;;;5.08;56.20
41040;BME280;48586;50.122;18.972;2024-02-21T08:45:25;99015.50;;;5.13;56.25
41040;BME280;48586;50.122;18.972;2024-02-21T08:48:31;99023.22;;;5.04;56.43
41040;BME280;48586;50.122;18.972;2024-02-21T08:51:41;99023.44;;;5.01;57.03
41040;BME280;48586;50.122;18.972;2024-02-21T08:54:47;99010.81;;;5.04;57.97
41040;BME280;48586;50.122;18.972;2024-02-21T08:57:56;99009.09;;;5.03;56.36
41040;BME280;48586;50.122;18.972;2024-02-21T09:01:02;99014.91;;;4.96;56.82
41040;BME280;48586;50.122;18.972;2024-02-21T09:04:10;99007.91;;;4.95;56.62
41040;BME280;48586;50.122;18.972;2024-02-21T09:07:18;99002.13;;;4.88;56.73
41040;BME280;48586;50.122;18.972;2024-02-21T09:10:25;98992.63;;;4.98;56.56
41040;BME280;48586;50.122;18.972;2024-02-21T09:13:31;98995.09;;;5.01;56.24
41040;BME280;48586;50.122;18.972;2024-02-21T09:16:38;99004.41;;;4.94;55.69
41040;BME280;48586;50.122;18.972;2024-02-21T09:19:44;98998.38;;;5.05;56.44
41040;BME280;48586;50.122;18.972;2024-02-21T09:22:54;98997.44;;;5.19;55.94
41040;BME280;48586;50.122;18.972;2024-02-21T09:25:59;99004.53;;;5.32;56.30
41040;BME280;48586;50.122;18.972;2024-02-21T09:29:06;98998.38;;;5.57;55.17
41040;BME280;48586;50.122;18.972;2024-02-21T09:32:12;99006.78;;;5.77;55.03
41040;BME280;48586;50.122;18.972;2024-02-21T09:35:19;99002.72;;;5.84;52.94
41040;BME280;48586;50.122;18.972;2024-02-21T09:38:28;98998.69;;;6.04;53.58
41040;BME280;48586;50.122;18.972;2024-02-21T09:41:36;99008.44;;;6.28;52.69
41040;BME280;48586;50.122;18.972;2024-02-21T09:44:51;99006.88;;;6.50;52.67
41040;BME280;48586;50.122;18.972;2024-02-21T09:48:18;99005.09;;;6.38;51.47
41040;BME280;48586;50.122;18.972;2024-02-21T09:51:40;99005.97;;;6.25;51.58
41040;BME280;48586;50.122;18.972;2024-02-21T09:54:52;99009.19;;;6.18;51.02
41040;BME280;48586;50.122;18.972;2024-02-21T09:58:01;99005.38;;;6.09;51.20
41040;BME280;48586;50.122;18.972;2024-02-21T10:01:07;99016.63;;;6.13;50.52
41040;BME280;48586;50.122;18.972;2024-02-21T10:04:15;98999.53;;;6.17;51.19
41040;BME280;48586;50.122;18.972;2024-02-21T10:07:20;99001.50;;;6.26;50.58
41040;BME280;48586;50.122;18.972;2024-02-21T10:10:29;98995.09;;;6.41;50.57
41040;BME280;48586;50.122;18.972;2024-02-21T10:13:35;98998.91;;;6.37;50.73
41040;BME280;48586;50.122;18.972;2024-02-21T10:16:39;99005.84;;;6.27;50.76
41040;BME280;48586;50.122;18.972;2024-02-21T10:19:45;98995.09;;;6.41;51.32
41040;BME280;48586;50.122;18.972;2024-02-21T10:23:00;99000.84;;;6.35;50.44
41040;BME280;48586;50.122;18.972;2024-02-21T10:26:13;98993.75;;;6.23;50.27
41040;BME280;48586;50.122;18.972;2024-02-21T10:29:18;99000.53;;;6.27;50.18
41040;BME280;48586;50.122;18.972;2024-02-21T10:32:23;98988.41;;;6.36;50.23
41040;BME280;48586;50.122;18.972;2024-02-21T10:35:31;98986.56;;;6.49;50.91
41040;BME280;48586;50.122;18.972;2024-02-21T10:38:38;98979.09;;;6.54;48.96
41040;BME280;48586;50.122;18.972;2024-02-21T10:41:46;98976.38;;;6.67;49.33
41040;BME280;48586;50.122;18.972;2024-02-21T10:44:52;98955.94;;;6.67;48.11
41040;BME280;48586;50.122;18.972;2024-02-21T10:48:08;98960.38;;;6.79;48.00
41040;BME280;48586;50.122;18.972;2024-02-21T10:51:17;98956.06;;;6.90;47.93
41040;BME280;48586;50.122;18.972;2024-02-21T10:54:44;98952.75;;;7.10;46.75
41040;BME280;48586;50.122;18.972;2024-02-21T10:57:56;98959.72;;;7.24;46.73
41040;BME280;48586;50.122;18.972;2024-02-21T11:01:05;98960.34;;;7.38;47.58
41040;BME280;48586;50.122;18.972;2024-02-21T11:04:15;98940.09;;;7.25;46.14
41040;BME280;48586;50.122;18.972;2024-02-21T11:07:20;98942.09;;;7.10;46.70
41040;BME280;48586;50.122;18.972;2024-02-21T11:10:27;98939.78;;;7.05;47.10
41040;BME280;48586;50.122;18.972;2024-02-21T11:13:35;98934.34;;;7.07;47.14
41040;BME280;48586;50.122;18.972;2024-02-21T11:16:42;98928.41;;;7.03;46.48
41040;BME280;48586;50.122;18.972;2024-02-21T11:19:47;98913.38;;;6.91;47.49
41040;BME280;48586;50.122;18.972;2024-02-21T11:22:53;98923.78;;;6.70;47.16
41040;BME280;48586;50.122;18.972;2024-02-21T11:26:06;98919.28;;;6.59;47.37
41040;BME280;48586;50.122;18.972;2024-02-21T11:29:23;98917.91;;;6.54;47.85
41040;BME280;48586;50.122;18.972;2024-02-21T11:32:31;98918.00;;;6.52;48.62
41040;BME280;48586;50.122;18.972;2024-02-21T11:35:37;98896.50;;;6.55;48.26
41040;BME280;48586;50.122;18.972;2024-02-21T11:38:41;98903.97;;;6.74;48.44
41040;BME280;48586;50.122;18.972;2024-02-21T11:41:47;98898.22;;;6.80;46.94
41040;BME280;48586;50.122;18.972;2024-02-21T11:44:54;98901.56;;;6.58;47.93
41040;BME280;48586;50.122;18.972;2024-02-21T11:48:01;98888.22;;;6.71;48.37
41040;BME280;48586;50.122;18.972;2024-02-21T11:51:07;98890.78;;;6.73;48.42
41040;BME280;48586;50.122;18.972;2024-02-21T11:54:13;98900.44;;;6.74;48.48
41040;BME280;48586;50.122;18.972;2024-02-21T11:57:18;98894.97;;;6.64;48.43
41040;BME280;48586;50.122;18.972;2024-02-21T12:00:27;98900.34;;;6.51;48.60
41040;BME280;48586;50.122;18.972;2024-02-21T12:03:32;98896.81;;;6.40;49.08
41040;BME280;48586;50.122;18.972;2024-02-21T12:06:38;98883.22;;;6.32;49.22
41040;BME280;48586;50.122;18.972;2024-02-21T12:09:43;98890.56;;;6.28;49.24
41040;BME280;48586;50.122;18.972;2024-02-21T12:12:49;98885.13;;;6.29;49.55
41040;BME280;48586;50.122;18.972;2024-02-21T12:15:58;98891.31;;;6.30;50.49
41040;BME280;48586;50.122;18.972;2024-02-21T12:19:05;98888.00;;;6.26;51.77
41040;BME280;48586;50.122;18.972;2024-02-21T12:22:16;98882.34;;;6.07;52.04
41040;BME280;48586;50.122;18.972;2024-02-21T12:25:22;98883.22;;;5.95;53.04
41040;BME280;48586;50.122;18.972;2024-02-21T12:28:28;98908.69;;;5.61;53.14
41040;BME280;48586;50.122;18.972;2024-02-21T12:31:36;98883.31;;;5.57;54.46
41040;BME280;48586;50.122;18.972;2024-02-21T12:34:41;98878.84;;;5.57;56.83
41040;BME280;48586;50.122;18.972;2024-02-21T12:37:46;98874.16;;;5.61;57.20
41040;BME280;48586;50.122;18.972;2024-02-21T12:40:52;98875.34;;;5.57;58.36
41040;BME280;48586;50.122;18.972;2024-02-21T12:43:59;98876.31;;;5.56;59.36
41040;BME280;48586;50.122;18.972;2024-02-21T12:47:07;98863.47;;;5.37;59.13
41040;BME280;48586;50.122;18.972;2024-02-21T12:50:12;98874.38;;;5.20;59.04
41040;BME280;48586;50.122;18.972;2024-02-21T12:53:18;98885.72;;;4.83;59.60
41040;BME280;48586;50.122;18.972;2024-02-21T12:56:25;98869.91;;;4.69;60.91
41040;BME280;48586;50.122;18.972;2024-02-21T12:59:31;98862.22;;;4.65;61.96
41040;BME280;48586;50.122;18.972;2024-02-21T13:02:39;98860.53;;;4.64;61.95
41040;BME280;48586;50.122;18.972;2024-02-21T13:05:43;98855.97;;;4.66;61.57
41040;BME280;48586;50.122;18.972;2024-02-21T13:08:51;98853.41;;;4.64;61.54
41040;BME280;48586;50.122;18.972;2024-02-21T13:11:55;98847.47;;;4.61;61.70
41040;BME280;48586;50.122;18.972;2024-02-21T13:15:01;98844.09;;;4.59;61.87
41040;BME280;48586;50.122;18.972;2024-02-21T13:18:08;98846.53;;;4.62;62.80
41040;BME280;48586;50.122;18.972;2024-02-21T13:21:14;98825.84;;;4.67;62.32
41040;BME280;48586;50.122;18.972;2024-02-21T13:24:19;98836.25;;;4.70;62.65
41040;BME280;48586;50.122;18.972;2024-02-21T13:27:25;98826.38;;;4.72;61.93
41040;BME280;48586;50.122;18.972;2024-02-21T13:30:29;98820.13;;;4.73;61.92
41040;BME280;48586;50.122;18.972;2024-02-21T13:33:37;98818.31;;;4.86;62.26
41040;BME280;48586;50.122;18.972;2024-02-21T13:36:42;98818.31;;;4.86;61.27
41040;BME280;48586;50.122;18.972;2024-02-21T13:39:48;98811.66;;;4.93;61.54
41040;BME280;48586;50.122;18.972;2024-02-21T13:42:52;98810.28;;;5.00;61.51
41040;BME280;48586;50.122;18.972;2024-02-21T13:45:59;98813.00;;;4.99;60.93
41040;BME280;48586;50.122;18.972;2024-02-21T13:49:08;98812.59;;;5.05;60.97
41040;BME280;48586;50.122;18.972;2024-02-21T13:52:14;98806.44;;;4.92;61.03
41040;BME280;48586;50.122;18.972;2024-02-21T13:55:21;98806.56;;;4.90;60.46
41040;BME280;48586;50.122;18.972;2024-02-21T13:58:28;98815.78;;;4.72;60.70
41040;BME280;48586;50.122;18.972;2024-02-21T14:01:32;98813.00;;;4.73;60.53
41040;BME280;48586;50.122;18.972;2024-02-21T14:04:40;98804.09;;;4.74;60.99
41040;BME280;48586;50.122;18.972;2024-02-21T14:07:45;98793.19;;;4.79;60.86
41040;BME280;48586;50.122;18.972;2024-02-21T14:10:51;98815.78;;;4.72;60.73
41040;BME280;48586;50.122;18.972;2024-02-21T14:13:56;98787.44;;;4.72;61.76
41040;BME280;48586;50.122;18.972;2024-02-21T14:17:02;98795.63;;;4.69;60.96
41040;BME280;48586;50.122;18.972;2024-02-21T14:20:10;98791.34;;;4.67;61.37
41040;BME280;48586;50.122;18.972;2024-02-21T14:23:17;98777.56;;;4.62;61.29
41040;BME280;48586;50.122;18.972;2024-02-21T14:26:22;98767.59;;;4.65;62.37
41040;BME280;48586;50.122;18.972;2024-02-21T14:29:27;98769.94;;;4.70;62.01
41040;BME280;48586;50.122;18.972;2024-02-21T14:32:32;98768.03;;;4.72;62.49
41040;BME280;48586;50.122;18.972;2024-02-21T14:35:40;98748.94;;;4.79;63.00
41040;BME280;48586;50.122;18.972;2024-02-21T14:38:45;98751.69;;;4.91;62.24
41040;BME280;48586;50.122;18.972;2024-02-21T14:41:50;98748.28;;;5.01;62.49
41040;BME280;48586;50.122;18.972;2024-02-21T14:44:55;98739.09;;;5.18;62.38
41040;BME280;48586;50.122;18.972;2024-02-21T14:48:06;98725.72;;;5.32;61.05
41040;BME280;48586;50.122;18.972;2024-02-21T14:51:13;98708.41;;;5.63;60.93
41040;BME280;48586;50.122;18.972;2024-02-21T14:54:19;98694.09;;;6.12;58.30
41040;BME280;48586;50.122;18.972;2024-02-21T14:57:26;98696.84;;;6.57;55.86
41040;BME280;48586;50.122;18.972;2024-02-21T15:00:31;98695.44;;;7.09;54.36
41040;BME280;48586;50.122;18.972;2024-02-21T15:03:36;98709.41;;;7.56;52.88
41040;BME280;48586;50.122;18.972;2024-02-21T15:06:44;98705.34;;;7.72;50.52
41040;BME280;48586;50.122;18.972;2024-02-21T15:09:50;98702.91;;;7.81;49.14
41040;BME280;48586;50.122;18.972;2024-02-21T15:12:55;98700.56;;;7.87;49.29
41040;BME280;48586;50.122;18.972;2024-02-21T15:16:00;98711.59;;;7.83;48.89
41040;BME280;48586;50.122;18.972;2024-02-21T15:19:07;98706.47;;;7.59;49.32
41040;BME280;48586;50.122;18.972;2024-02-21T15:22:14;98705.06;;;7.32;49.60
41040;BME280;48586;50.122;18.972;2024-02-21T15:25:20;98709.59;;;6.98;50.64
41040;BME280;48586;50.122;18.972;2024-02-21T15:28:24;98715.72;;;6.54;51.68
41040;BME280;48586;50.122;18.972;2024-02-21T15:31:30;98702.22;;;6.22;53.04
41040;BME280;48586;50.122;18.972;2024-02-21T15:34:35;98690.47;;;6.13;53.73
41040;BME280;48586;50.122;18.972;2024-02-21T15:37:44;98696.97;;;5.98;53.87
41040;BME280;48586;50.122;18.972;2024-02-21T15:40:49;98688.47;;;5.93;54.34
41040;BME280;48586;50.122;18.972;2024-02-21T15:43:54;98680.38;;;5.94;54.00
41040;BME280;48586;50.122;18.972;2024-02-21T15:47:00;98679.50;;;5.83;54.37
41040;BME280;48586;50.122;18.972;2024-02-21T15:50:07;98667.41;;;5.79;54.50
41040;BME280;48586;50.122;18.972;2024-02-21T15:53:16;98673.16;;;5.72;54.33
41040;BME280;48586;50.122;18.972;2024-02-21T15:56:22;98672.50;;;5.58;54.90
41040;BME280;48586;50.122;18.972;2024-02-21T15:59:28;98674.38;;;5.45;55.13
41040;BME280;48586;50.122;18.972;2024-02-21T16:02:33;98680.47;;;5.34;55.72
41040;BME280;48586;50.122;18.972;2024-02-21T16:05:38;98683.91;;;5.23;55.59
41040;BME280;48586;50.122;18.972;2024-02-21T16:08:46;98693.00;;;5.19;55.69
41040;BME280;48586;50.122;18.972;2024-02-21T16:11:51;98690.59;;;5.16;55.76
41040;BME280;48586;50.122;18.972;2024-02-21T16:14:56;98689.97;;;5.12;55.94
41040;BME280;48586;50.122;18.972;2024-02-21T16:18:01;98689.91;;;5.01;56.27
41040;BME280;48586;50.122;18.972;2024-02-21T16:21:07;98686.47;;;4.99;56.33
41040;BME280;48586;50.122;18.972;2024-02-21T16:24:15;98688.63;;;4.94;56.20
41040;BME280;48586;50.122;18.972;2024-02-21T16:27:20;98681.63;;;4.93;56.04